Portada
METAR-TAF:

METAR-TAF

Aeroports :

Miri, Malàisia

latitud: 04-20N, longitud: 113-59E, altitud: 17 m

Observació

L'informe es va fer fa 1 hora i 2 minuts, a les 13:00 UTC
Vent 10 kt del Est/Nord-Est, variant entre Nord/Nord-Est i Est
Temperatura 27°C
Humitat 89%
Pressió 1011 hPa
Visibilitat 10 km o més
Núvols disperses a una alçada de 1600 ft
Cel ennuvolat a una alçada de 15000 ft

METAR: WBGR 261300Z 06010KT 020V090 9999 SCT016 BKN150 27/25 Q1011

Hora: 22:02 (14:02 UTC)

Pronòstic

L'informe es va fer fa 3 hores i 2 minuts, a les 11:00 UTC
Pronòstic vàlid del 26 a les 12 UTC al 27 a les 12 UTC
Vent 5 kt del Nord/Nord-Oest
Visibilitat: 8000 m
Núvols disperses a una alçada de 1600 ft

TAF: WBGR 261100Z 2612/2712 33005KT 8000 SCT016

Observacions i pronòstics meteorològics de més de 4000 aeroports (METAR i TAF).

Les estacions disponibles són els punts grocs i vermells al mapa.

Posi el ratolí al punt desitjat per veure el nom de l'estació.

Feu clic per veure les observacions i els pronòstics meteorològics.

Per canviar el mapa: feu clic els botons verds amb una creu de color negre per apropar; al botó verd amb un guió per allunyar la imatge; o en les fletxes verdes per a mapes adjacents.


METAR-TAF: